sensor_id;sensor_type;location;lat;lon;timestamp;P1;durP1;ratioP1;P2;durP2;ratioP2
62463;SDS011;48512;48.552;9.380;2023-06-22T00:00:12;14.82;;;8.27;;
62463;SDS011;48512;48.552;9.380;2023-06-22T00:02:39;18.10;;;9.70;;
62463;SDS011;48512;48.552;9.380;2023-06-22T00:05:05;18.42;;;8.93;;
62463;SDS011;48512;48.552;9.380;2023-06-22T00:07:34;17.17;;;8.68;;
62463;SDS011;48512;48.552;9.380;2023-06-22T00:10:00;18.45;;;8.65;;
62463;SDS011;48512;48.552;9.380;2023-06-22T00:12:26;13.55;;;8.65;;
62463;SDS011;48512;48.552;9.380;2023-06-22T00:14:52;16.75;;;8.40;;
62463;SDS011;48512;48.552;9.380;2023-06-22T00:17:18;13.23;;;8.48;;
62463;SDS011;48512;48.552;9.380;2023-06-22T00:19:46;14.38;;;8.85;;
62463;SDS011;48512;48.552;9.380;2023-06-22T00:22:19;14.40;;;8.30;;
62463;SDS011;48512;48.552;9.380;2023-06-22T00:24:56;18.63;;;8.68;;
62463;SDS011;48512;48.552;9.380;2023-06-22T00:27:23;16.90;;;8.88;;
62463;SDS011;48512;48.552;9.380;2023-06-22T00:29:50;15.77;;;8.70;;
62463;SDS011;48512;48.552;9.380;2023-06-22T00:32:18;17.38;;;8.63;;
62463;SDS011;48512;48.552;9.380;2023-06-22T00:34:48;16.52;;;7.95;;
62463;SDS011;48512;48.552;9.380;2023-06-22T00:37:14;16.98;;;8.38;;
62463;SDS011;48512;48.552;9.380;2023-06-22T00:39:40;17.13;;;8.52;;
62463;SDS011;48512;48.552;9.380;2023-06-22T00:42:09;20.23;;;8.82;;
62463;SDS011;48512;48.552;9.380;2023-06-22T00:44:36;14.65;;;7.90;;
62463;SDS011;48512;48.552;9.380;2023-06-22T00:47:02;14.60;;;7.82;;
62463;SDS011;48512;48.552;9.380;2023-06-22T00:49:29;15.25;;;7.72;;
62463;SDS011;48512;48.552;9.380;2023-06-22T00:51:58;14.38;;;7.75;;
62463;SDS011;48512;48.552;9.380;2023-06-22T00:54:27;21.10;;;8.25;;
62463;SDS011;48512;48.552;9.380;2023-06-22T00:56:58;15.80;;;7.72;;
62463;SDS011;48512;48.552;9.380;2023-06-22T00:59:27;13.43;;;7.68;;
62463;SDS011;48512;48.552;9.380;2023-06-22T01:01:54;15.07;;;7.45;;
62463;SDS011;48512;48.552;9.380;2023-06-22T01:04:33;17.92;;;8.32;;
62463;SDS011;48512;48.552;9.380;2023-06-22T01:07:03;14.65;;;7.22;;
62463;SDS011;48512;48.552;9.380;2023-06-22T01:09:32;14.60;;;8.20;;
62463;SDS011;48512;48.552;9.380;2023-06-22T01:12:08;16.27;;;7.15;;
62463;SDS011;48512;48.552;9.380;2023-06-22T01:14:38;13.60;;;7.80;;
62463;SDS011;48512;48.552;9.380;2023-06-22T01:17:08;12.05;;;7.45;;
62463;SDS011;48512;48.552;9.380;2023-06-22T01:19:43;16.23;;;7.38;;
62463;SDS011;48512;48.552;9.380;2023-06-22T01:22:15;16.70;;;7.72;;
62463;SDS011;48512;48.552;9.380;2023-06-22T01:29:53;12.20;;;7.22;;
62463;SDS011;48512;48.552;9.380;2023-06-22T01:32:30;17.58;;;7.60;;
62463;SDS011;48512;48.552;9.380;2023-06-22T01:34:58;13.40;;;7.53;;
62463;SDS011;48512;48.552;9.380;2023-06-22T01:37:30;12.70;;;7.40;;
62463;SDS011;48512;48.552;9.380;2023-06-22T01:40:00;13.27;;;6.55;;
62463;SDS011;48512;48.552;9.380;2023-06-22T01:42:27;13.48;;;7.55;;
62463;SDS011;48512;48.552;9.380;2023-06-22T01:44:54;13.93;;;7.70;;
62463;SDS011;48512;48.552;9.380;2023-06-22T01:47:22;12.68;;;7.18;;
62463;SDS011;48512;48.552;9.380;2023-06-22T01:49:52;12.65;;;7.18;;
62463;SDS011;48512;48.552;9.380;2023-06-22T01:52:21;14.95;;;6.85;;
62463;SDS011;48512;48.552;9.380;2023-06-22T01:54:47;13.02;;;6.75;;
62463;SDS011;48512;48.552;9.380;2023-06-22T01:57:16;17.27;;;7.35;;
62463;SDS011;48512;48.552;9.380;2023-06-22T01:59:59;15.98;;;7.00;;
62463;SDS011;48512;48.552;9.380;2023-06-22T02:02:45;12.82;;;7.03;;
62463;SDS011;48512;48.552;9.380;2023-06-22T02:05:26;17.25;;;7.07;;
62463;SDS011;48512;48.552;9.380;2023-06-22T02:08:06;12.23;;;6.45;;
62463;SDS011;48512;48.552;9.380;2023-06-22T02:10:36;11.70;;;6.32;;
62463;SDS011;48512;48.552;9.380;2023-06-22T02:13:05;11.07;;;6.00;;
62463;SDS011;48512;48.552;9.380;2023-06-22T02:15:32;15.65;;;6.68;;
62463;SDS011;48512;48.552;9.380;2023-06-22T02:18:03;10.98;;;6.22;;
62463;SDS011;48512;48.552;9.380;2023-06-22T02:20:31;16.55;;;6.60;;
62463;SDS011;48512;48.552;9.380;2023-06-22T02:22:57;15.15;;;6.53;;
62463;SDS011;48512;48.552;9.380;2023-06-22T02:25:24;9.35;;;6.18;;
62463;SDS011;48512;48.552;9.380;2023-06-22T02:27:50;11.60;;;6.15;;
62463;SDS011;48512;48.552;9.380;2023-06-22T02:30:21;11.13;;;6.05;;
62463;SDS011;48512;48.552;9.380;2023-06-22T02:32:47;14.88;;;8.52;;
62463;SDS011;48512;48.552;9.380;2023-06-22T02:35:33;11.93;;;6.35;;
62463;SDS011;48512;48.552;9.380;2023-06-22T02:40:32;10.75;;;6.28;;
62463;SDS011;48512;48.552;9.380;2023-06-22T02:42:58;13.63;;;6.80;;
62463;SDS011;48512;48.552;9.380;2023-06-22T02:45:29;12.18;;;6.50;;
62463;SDS011;48512;48.552;9.380;2023-06-22T02:47:56;13.10;;;6.70;;
62463;SDS011;48512;48.552;9.380;2023-06-22T02:50:25;12.77;;;7.07;;
62463;SDS011;48512;48.552;9.380;2023-06-22T02:52:52;13.98;;;6.53;;
62463;SDS011;48512;48.552;9.380;2023-06-22T02:55:24;14.55;;;6.68;;
62463;SDS011;48512;48.552;9.380;2023-06-22T02:57:56;13.45;;;6.30;;
62463;SDS011;48512;48.552;9.380;2023-06-22T03:00:23;15.00;;;6.90;;
62463;SDS011;48512;48.552;9.380;2023-06-22T03:02:56;12.25;;;6.70;;
62463;SDS011;48512;48.552;9.380;2023-06-22T03:05:25;10.63;;;6.35;;
62463;SDS011;48512;48.552;9.380;2023-06-22T03:07:55;11.77;;;6.38;;
62463;SDS011;48512;48.552;9.380;2023-06-22T03:10:21;15.68;;;6.50;;
62463;SDS011;48512;48.552;9.380;2023-06-22T03:12:47;14.63;;;6.90;;
62463;SDS011;48512;48.552;9.380;2023-06-22T03:15:16;13.10;;;6.57;;
62463;SDS011;48512;48.552;9.380;2023-06-22T03:17:43;13.55;;;6.57;;
62463;SDS011;48512;48.552;9.380;2023-06-22T03:20:11;14.37;;;6.77;;
62463;SDS011;48512;48.552;9.380;2023-06-22T03:22:42;12.90;;;5.95;;
62463;SDS011;48512;48.552;9.380;2023-06-22T03:25:09;11.70;;;5.93;;
62463;SDS011;48512;48.552;9.380;2023-06-22T03:27:40;18.58;;;6.78;;
62463;SDS011;48512;48.552;9.380;2023-06-22T03:30:08;16.30;;;7.22;;
62463;SDS011;48512;48.552;9.380;2023-06-22T03:32:36;12.40;;;6.68;;
62463;SDS011;48512;48.552;9.380;2023-06-22T03:35:02;15.15;;;6.45;;
62463;SDS011;48512;48.552;9.380;2023-06-22T03:37:31;12.75;;;6.53;;
62463;SDS011;48512;48.552;9.380;2023-06-22T03:40:00;11.20;;;6.70;;
62463;SDS011;48512;48.552;9.380;2023-06-22T03:42:29;13.80;;;5.78;;
62463;SDS011;48512;48.552;9.380;2023-06-22T03:44:57;14.50;;;6.13;;
62463;SDS011;48512;48.552;9.380;2023-06-22T03:47:25;16.25;;;7.07;;
62463;SDS011;48512;48.552;9.380;2023-06-22T03:49:51;15.45;;;6.40;;
62463;SDS011;48512;48.552;9.380;2023-06-22T03:54:48;14.13;;;6.03;;
62463;SDS011;48512;48.552;9.380;2023-06-22T03:57:16;14.38;;;6.43;;
62463;SDS011;48512;48.552;9.380;2023-06-22T03:59:42;14.32;;;6.43;;
62463;SDS011;48512;48.552;9.380;2023-06-22T04:02:11;14.30;;;6.45;;
62463;SDS011;48512;48.552;9.380;2023-06-22T04:04:40;11.95;;;6.68;;
62463;SDS011;48512;48.552;9.380;2023-06-22T04:07:06;14.85;;;6.10;;
62463;SDS011;48512;48.552;9.380;2023-06-22T04:09:32;15.13;;;5.97;;
62463;SDS011;48512;48.552;9.380;2023-06-22T04:11:58;14.55;;;6.47;;
62463;SDS011;48512;48.552;9.380;2023-06-22T04:14:25;14.02;;;6.32;;
62463;SDS011;48512;48.552;9.380;2023-06-22T04:16:53;12.43;;;6.20;;
62463;SDS011;48512;48.552;9.380;2023-06-22T04:21:51;13.35;;;6.97;;
62463;SDS011;48512;48.552;9.380;2023-06-22T04:24:20;14.02;;;6.22;;
62463;SDS011;48512;48.552;9.380;2023-06-22T04:26:46;11.77;;;5.80;;
62463;SDS011;48512;48.552;9.380;2023-06-22T04:29:13;11.43;;;6.15;;
62463;SDS011;48512;48.552;9.380;2023-06-22T04:31:39;14.10;;;5.95;;
62463;SDS011;48512;48.552;9.380;2023-06-22T04:34:09;14.43;;;6.03;;
62463;SDS011;48512;48.552;9.380;2023-06-22T04:36:36;12.48;;;5.90;;
62463;SDS011;48512;48.552;9.380;2023-06-22T04:39:07;12.82;;;5.45;;
62463;SDS011;48512;48.552;9.380;2023-06-22T04:41:35;14.95;;;6.03;;
62463;SDS011;48512;48.552;9.380;2023-06-22T04:44:11;13.15;;;6.97;;
62463;SDS011;48512;48.552;9.380;2023-06-22T04:46:38;15.52;;;5.80;;
62463;SDS011;48512;48.552;9.380;2023-06-22T04:49:06;12.00;;;5.70;;
62463;SDS011;48512;48.552;9.380;2023-06-22T04:51:44;13.52;;;6.10;;
62463;SDS011;48512;48.552;9.380;2023-06-22T04:54:13;15.90;;;6.03;;
62463;SDS011;48512;48.552;9.380;2023-06-22T04:56:39;13.52;;;6.85;;
62463;SDS011;48512;48.552;9.380;2023-06-22T04:59:06;13.60;;;6.80;;
62463;SDS011;48512;48.552;9.380;2023-06-22T05:01:33;13.35;;;6.50;;
62463;SDS011;48512;48.552;9.380;2023-06-22T05:04:03;16.20;;;7.05;;
62463;SDS011;48512;48.552;9.380;2023-06-22T05:06:32;13.90;;;6.80;;
62463;SDS011;48512;48.552;9.380;2023-06-22T05:08:58;14.65;;;7.13;;
62463;SDS011;48512;48.552;9.380;2023-06-22T05:11:27;17.58;;;8.23;;
62463;SDS011;48512;48.552;9.380;2023-06-22T05:13:56;15.60;;;8.43;;
62463;SDS011;48512;48.552;9.380;2023-06-22T05:16:23;15.52;;;8.57;;
62463;SDS011;48512;48.552;9.380;2023-06-22T05:18:52;21.45;;;9.15;;
62463;SDS011;48512;48.552;9.380;2023-06-22T05:21:23;16.42;;;8.68;;
62463;SDS011;48512;48.552;9.380;2023-06-22T05:23:55;15.43;;;8.70;;
62463;SDS011;48512;48.552;9.380;2023-06-22T05:26:25;20.65;;;8.80;;
62463;SDS011;48512;48.552;9.380;2023-06-22T05:28:52;15.18;;;8.07;;
62463;SDS011;48512;48.552;9.380;2023-06-22T05:31:19;22.48;;;9.00;;
62463;SDS011;48512;48.552;9.380;2023-06-22T05:33:49;18.50;;;9.13;;
62463;SDS011;48512;48.552;9.380;2023-06-22T05:36:17;15.70;;;8.45;;
62463;SDS011;48512;48.552;9.380;2023-06-22T05:41:13;19.05;;;8.90;;
62463;SDS011;48512;48.552;9.380;2023-06-22T05:43:40;21.77;;;9.13;;
62463;SDS011;48512;48.552;9.380;2023-06-22T05:46:08;14.85;;;8.13;;
62463;SDS011;48512;48.552;9.380;2023-06-22T05:48:34;23.02;;;8.65;;
62463;SDS011;48512;48.552;9.380;2023-06-22T05:51:01;16.15;;;8.68;;
62463;SDS011;48512;48.552;9.380;2023-06-22T05:53:27;16.30;;;8.80;;
62463;SDS011;48512;48.552;9.380;2023-06-22T05:55:53;23.15;;;9.27;;
62463;SDS011;48512;48.552;9.380;2023-06-22T05:58:20;18.02;;;9.23;;
62463;SDS011;48512;48.552;9.380;2023-06-22T06:00:46;14.52;;;8.80;;
62463;SDS011;48512;48.552;9.380;2023-06-22T06:03:17;18.85;;;9.02;;
62463;SDS011;48512;48.552;9.380;2023-06-22T06:05:45;15.43;;;9.07;;
62463;SDS011;48512;48.552;9.380;2023-06-22T06:08:13;19.42;;;9.20;;
62463;SDS011;48512;48.552;9.380;2023-06-22T06:10:40;16.80;;;9.25;;
62463;SDS011;48512;48.552;9.380;2023-06-22T06:13:06;22.73;;;10.77;;
62463;SDS011;48512;48.552;9.380;2023-06-22T06:18:01;17.98;;;9.25;;
62463;SDS011;48512;48.552;9.380;2023-06-22T06:20:30;17.08;;;8.52;;
62463;SDS011;48512;48.552;9.380;2023-06-22T06:23:04;20.35;;;8.75;;
62463;SDS011;48512;48.552;9.380;2023-06-22T06:25:32;15.68;;;8.38;;
62463;SDS011;48512;48.552;9.380;2023-06-22T06:27:58;12.88;;;8.02;;
62463;SDS011;48512;48.552;9.380;2023-06-22T06:30:24;15.07;;;8.52;;
62463;SDS011;48512;48.552;9.380;2023-06-22T06:32:52;15.13;;;8.02;;
62463;SDS011;48512;48.552;9.380;2023-06-22T06:35:21;15.77;;;8.02;;
62463;SDS011;48512;48.552;9.380;2023-06-22T06:37:48;20.55;;;8.70;;
62463;SDS011;48512;48.552;9.380;2023-06-22T06:40:16;13.48;;;8.02;;
62463;SDS011;48512;48.552;9.380;2023-06-22T06:42:44;15.20;;;8.13;;
62463;SDS011;48512;48.552;9.380;2023-06-22T06:47:45;12.82;;;7.32;;
62463;SDS011;48512;48.552;9.380;2023-06-22T06:50:18;15.48;;;8.10;;
62463;SDS011;48512;48.552;9.380;2023-06-22T06:52:46;18.48;;;8.32;;
62463;SDS011;48512;48.552;9.380;2023-06-22T06:55:13;21.58;;;8.13;;
62463;SDS011;48512;48.552;9.380;2023-06-22T06:57:39;22.60;;;8.13;;
62463;SDS011;48512;48.552;9.380;2023-06-22T07:00:07;15.40;;;8.05;;
62463;SDS011;48512;48.552;9.380;2023-06-22T07:02:37;16.92;;;8.70;;
62463;SDS011;48512;48.552;9.380;2023-06-22T07:05:08;21.15;;;9.00;;
62463;SDS011;48512;48.552;9.380;2023-06-22T07:07:37;19.95;;;8.27;;
62463;SDS011;48512;48.552;9.380;2023-06-22T07:10:04;18.73;;;8.23;;
62463;SDS011;48512;48.552;9.380;2023-06-22T07:12:32;15.63;;;7.88;;
62463;SDS011;48512;48.552;9.380;2023-06-22T07:15:04;16.27;;;8.15;;
62463;SDS011;48512;48.552;9.380;2023-06-22T07:17:35;12.80;;;8.07;;
62463;SDS011;48512;48.552;9.380;2023-06-22T07:20:02;22.48;;;8.85;;
62463;SDS011;48512;48.552;9.380;2023-06-22T07:22:36;20.42;;;8.55;;
62463;SDS011;48512;48.552;9.380;2023-06-22T07:25:05;16.00;;;7.63;;
62463;SDS011;48512;48.552;9.380;2023-06-22T07:27:38;13.85;;;7.60;;
62463;SDS011;48512;48.552;9.380;2023-06-22T07:30:08;23.50;;;8.23;;
62463;SDS011;48512;48.552;9.380;2023-06-22T07:32:36;15.80;;;7.93;;
62463;SDS011;48512;48.552;9.380;2023-06-22T07:35:02;14.35;;;8.02;;
62463;SDS011;48512;48.552;9.380;2023-06-22T07:37:30;16.90;;;8.20;;
62463;SDS011;48512;48.552;9.380;2023-06-22T07:39:58;14.73;;;7.82;;
62463;SDS011;48512;48.552;9.380;2023-06-22T07:42:24;17.23;;;7.30;;
62463;SDS011;48512;48.552;9.380;2023-06-22T07:44:54;15.50;;;8.30;;
62463;SDS011;48512;48.552;9.380;2023-06-22T07:49:53;16.42;;;7.70;;
62463;SDS011;48512;48.552;9.380;2023-06-22T07:52:23;16.23;;;8.20;;
62463;SDS011;48512;48.552;9.380;2023-06-22T07:54:51;18.93;;;8.03;;
62463;SDS011;48512;48.552;9.380;2023-06-22T07:57:17;20.75;;;8.70;;
62463;SDS011;48512;48.552;9.380;2023-06-22T07:59:44;19.92;;;8.15;;
62463;SDS011;48512;48.552;9.380;2023-06-22T08:02:11;16.20;;;8.40;;
62463;SDS011;48512;48.552;9.380;2023-06-22T08:04:37;19.17;;;8.73;;
62463;SDS011;48512;48.552;9.380;2023-06-22T08:07:07;17.95;;;8.63;;
62463;SDS011;48512;48.552;9.380;2023-06-22T08:09:38;15.05;;;8.70;;
62463;SDS011;48512;48.552;9.380;2023-06-22T08:12:07;16.20;;;8.48;;
62463;SDS011;48512;48.552;9.380;2023-06-22T08:14:35;22.45;;;9.20;;
62463;SDS011;48512;48.552;9.380;2023-06-22T08:17:03;23.23;;;9.68;;
62463;SDS011;48512;48.552;9.380;2023-06-22T08:19:32;25.25;;;9.25;;
62463;SDS011;48512;48.552;9.380;2023-06-22T08:21:58;19.42;;;9.18;;
62463;SDS011;48512;48.552;9.380;2023-06-22T08:24:24;22.42;;;8.80;;
62463;SDS011;48512;48.552;9.380;2023-06-22T08:26:51;18.60;;;9.43;;
62463;SDS011;48512;48.552;9.380;2023-06-22T08:29:17;21.83;;;9.13;;
62463;SDS011;48512;48.552;9.380;2023-06-22T08:31:44;19.45;;;9.35;;
62463;SDS011;48512;48.552;9.380;2023-06-22T08:34:12;21.35;;;9.60;;
62463;SDS011;48512;48.552;9.380;2023-06-22T08:36:38;21.42;;;9.25;;
62463;SDS011;48512;48.552;9.380;2023-06-22T08:39:10;19.95;;;9.20;;
62463;SDS011;48512;48.552;9.380;2023-06-22T08:41:36;18.95;;;9.10;;
62463;SDS011;48512;48.552;9.380;2023-06-22T08:44:03;20.80;;;8.80;;
62463;SDS011;48512;48.552;9.380;2023-06-22T08:46:31;23.33;;;9.00;;
62463;SDS011;48512;48.552;9.380;2023-06-22T08:48:59;21.25;;;9.45;;
62463;SDS011;48512;48.552;9.380;2023-06-22T08:51:25;21.45;;;9.40;;
62463;SDS011;48512;48.552;9.380;2023-06-22T08:53:59;16.90;;;9.48;;
62463;SDS011;48512;48.552;9.380;2023-06-22T08:56:27;20.17;;;9.93;;
62463;SDS011;48512;48.552;9.380;2023-06-22T08:58:53;19.83;;;9.27;;
62463;SDS011;48512;48.552;9.380;2023-06-22T09:01:22;23.60;;;9.93;;
62463;SDS011;48512;48.552;9.380;2023-06-22T09:03:48;22.05;;;8.90;;
62463;SDS011;48512;48.552;9.380;2023-06-22T09:06:20;22.08;;;9.30;;
62463;SDS011;48512;48.552;9.380;2023-06-22T09:08:47;16.88;;;9.05;;
62463;SDS011;48512;48.552;9.380;2023-06-22T09:11:14;17.77;;;8.82;;
62463;SDS011;48512;48.552;9.380;2023-06-22T09:13:40;22.85;;;8.90;;
62463;SDS011;48512;48.552;9.380;2023-06-22T09:16:06;21.33;;;9.25;;
62463;SDS011;48512;48.552;9.380;2023-06-22T09:18:36;18.65;;;9.43;;
62463;SDS011;48512;48.552;9.380;2023-06-22T09:21:02;16.00;;;8.75;;
62463;SDS011;48512;48.552;9.380;2023-06-22T09:23:28;24.88;;;9.88;;
62463;SDS011;48512;48.552;9.380;2023-06-22T09:25:59;16.50;;;9.75;;
62463;SDS011;48512;48.552;9.380;2023-06-22T09:28:28;22.20;;;9.73;;
62463;SDS011;48512;48.552;9.380;2023-06-22T09:30:56;15.50;;;9.88;;
62463;SDS011;48512;48.552;9.380;2023-06-22T09:33:24;17.20;;;9.00;;
62463;SDS011;48512;48.552;9.380;2023-06-22T09:35:51;18.45;;;9.73;;
62463;SDS011;48512;48.552;9.380;2023-06-22T09:38:17;19.40;;;10.38;;
62463;SDS011;48512;48.552;9.380;2023-06-22T09:40:44;22.75;;;10.07;;
62463;SDS011;48512;48.552;9.380;2023-06-22T09:43:10;28.08;;;9.90;;
62463;SDS011;48512;48.552;9.380;2023-06-22T09:45:37;23.92;;;10.02;;
62463;SDS011;48512;48.552;9.380;2023-06-22T09:48:03;26.88;;;11.07;;
62463;SDS011;48512;48.552;9.380;2023-06-22T09:50:35;26.88;;;10.77;;
62463;SDS011;48512;48.552;9.380;2023-06-22T09:53:04;23.95;;;10.02;;
62463;SDS011;48512;48.552;9.380;2023-06-22T09:55:31;22.10;;;10.35;;
62463;SDS011;48512;48.552;9.380;2023-06-22T09:57:57;18.80;;;10.00;;
62463;SDS011;48512;48.552;9.380;2023-06-22T10:00:23;25.08;;;10.05;;
62463;SDS011;48512;48.552;9.380;2023-06-22T10:02:49;21.77;;;10.10;;
62463;SDS011;48512;48.552;9.380;2023-06-22T10:05:21;24.33;;;10.48;;
62463;SDS011;48512;48.552;9.380;2023-06-22T10:07:50;20.48;;;9.75;;
62463;SDS011;48512;48.552;9.380;2023-06-22T10:10:16;21.05;;;9.38;;
62463;SDS011;48512;48.552;9.380;2023-06-22T10:12:46;23.25;;;10.48;;
62463;SDS011;48512;48.552;9.380;2023-06-22T10:15:20;25.27;;;9.80;;
62463;SDS011;48512;48.552;9.380;2023-06-22T10:17:49;20.85;;;10.45;;
62463;SDS011;48512;48.552;9.380;2023-06-22T10:20:17;20.65;;;10.38;;
62463;SDS011;48512;48.552;9.380;2023-06-22T10:22:44;24.73;;;10.05;;
62463;SDS011;48512;48.552;9.380;2023-06-22T10:25:13;19.58;;;10.20;;
62463;SDS011;48512;48.552;9.380;2023-06-22T10:27:39;22.15;;;10.52;;
62463;SDS011;48512;48.552;9.380;2023-06-22T10:30:07;22.08;;;9.90;;
62463;SDS011;48512;48.552;9.380;2023-06-22T10:32:38;21.00;;;9.77;;
62463;SDS011;48512;48.552;9.380;2023-06-22T10:35:05;23.65;;;11.23;;
62463;SDS011;48512;48.552;9.380;2023-06-22T10:37:31;21.05;;;9.77;;
62463;SDS011;48512;48.552;9.380;2023-06-22T10:40:01;21.08;;;9.48;;
62463;SDS011;48512;48.552;9.380;2023-06-22T10:42:29;19.70;;;10.88;;
62463;SDS011;48512;48.552;9.380;2023-06-22T10:44:55;72.57;;;42.65;;
62463;SDS011;48512;48.552;9.380;2023-06-22T10:47:25;458.25;;;354.25;;
62463;SDS011;48512;48.552;9.380;2023-06-22T10:49:51;567.72;;;429.13;;
62463;SDS011;48512;48.552;9.380;2023-06-22T10:57:13;290.27;;;222.30;;
62463;SDS011;48512;48.552;9.380;2023-06-22T10:59:40;27.52;;;18.17;;
62463;SDS011;48512;48.552;9.380;2023-06-22T11:02:10;21.27;;;12.35;;
62463;SDS011;48512;48.552;9.380;2023-06-22T11:07:07;25.30;;;10.30;;
62463;SDS011;48512;48.552;9.380;2023-06-22T11:09:34;23.73;;;10.93;;
62463;SDS011;48512;48.552;9.380;2023-06-22T11:12:03;26.95;;;11.27;;
62463;SDS011;48512;48.552;9.380;2023-06-22T11:14:29;26.83;;;11.80;;
62463;SDS011;48512;48.552;9.380;2023-06-22T11:16:59;27.00;;;11.73;;
62463;SDS011;48512;48.552;9.380;2023-06-22T11:19:25;28.48;;;13.95;;
62463;SDS011;48512;48.552;9.380;2023-06-22T11:21:54;27.02;;;12.95;;
62463;SDS011;48512;48.552;9.380;2023-06-22T11:24:25;28.33;;;13.65;;
62463;SDS011;48512;48.552;9.380;2023-06-22T11:26:54;21.80;;;10.93;;
62463;SDS011;48512;48.552;9.380;2023-06-22T11:29:23;23.27;;;10.90;;
62463;SDS011;48512;48.552;9.380;2023-06-22T11:31:49;27.20;;;10.88;;
62463;SDS011;48512;48.552;9.380;2023-06-22T11:34:15;28.17;;;11.05;;
62463;SDS011;48512;48.552;9.380;2023-06-22T11:36:41;26.42;;;11.10;;
62463;SDS011;48512;48.552;9.380;2023-06-22T11:39:10;20.70;;;11.00;;
62463;SDS011;48512;48.552;9.380;2023-06-22T11:41:40;28.38;;;11.20;;
62463;SDS011;48512;48.552;9.380;2023-06-22T11:44:07;24.38;;;10.60;;
62463;SDS011;48512;48.552;9.380;2023-06-22T11:46:36;22.42;;;11.02;;
62463;SDS011;48512;48.552;9.380;2023-06-22T11:49:03;25.92;;;11.55;;
62463;SDS011;48512;48.552;9.380;2023-06-22T11:51:29;30.05;;;11.38;;
62463;SDS011;48512;48.552;9.380;2023-06-22T11:53:58;25.17;;;11.77;;
62463;SDS011;48512;48.552;9.380;2023-06-22T11:56:26;32.50;;;11.80;;
62463;SDS011;48512;48.552;9.380;2023-06-22T11:58:53;27.35;;;11.50;;
62463;SDS011;48512;48.552;9.380;2023-06-22T12:01:20;30.58;;;11.60;;
62463;SDS011;48512;48.552;9.380;2023-06-22T12:03:47;25.15;;;11.25;;
62463;SDS011;48512;48.552;9.380;2023-06-22T12:06:16;23.98;;;11.38;;
62463;SDS011;48512;48.552;9.380;2023-06-22T12:08:43;28.75;;;12.23;;
62463;SDS011;48512;48.552;9.380;2023-06-22T12:11:11;29.30;;;10.68;;
62463;SDS011;48512;48.552;9.380;2023-06-22T12:13:37;27.55;;;11.90;;
62463;SDS011;48512;48.552;9.380;2023-06-22T12:18:38;21.55;;;11.65;;
62463;SDS011;48512;48.552;9.380;2023-06-22T12:21:04;25.10;;;10.98;;
62463;SDS011;48512;48.552;9.380;2023-06-22T12:23:30;34.30;;;12.38;;
62463;SDS011;48512;48.552;9.380;2023-06-22T12:25:59;27.55;;;11.80;;
62463;SDS011;48512;48.552;9.380;2023-06-22T12:28:27;28.20;;;11.80;;
62463;SDS011;48512;48.552;9.380;2023-06-22T12:30:53;27.55;;;11.63;;
62463;SDS011;48512;48.552;9.380;2023-06-22T12:33:19;30.05;;;11.52;;
62463;SDS011;48512;48.552;9.380;2023-06-22T12:35:45;25.10;;;11.15;;
62463;SDS011;48512;48.552;9.380;2023-06-22T12:38:12;28.77;;;11.45;;
62463;SDS011;48512;48.552;9.380;2023-06-22T12:40:40;23.98;;;11.40;;
62463;SDS011;48512;48.552;9.380;2023-06-22T12:43:07;30.33;;;11.20;;
62463;SDS011;48512;48.552;9.380;2023-06-22T12:45:36;30.60;;;11.65;;
62463;SDS011;48512;48.552;9.380;2023-06-22T12:48:02;24.20;;;11.45;;
62463;SDS011;48512;48.552;9.380;2023-06-22T12:52:56;23.60;;;11.10;;
62463;SDS011;48512;48.552;9.380;2023-06-22T12:55:23;28.85;;;11.52;;
62463;SDS011;48512;48.552;9.380;2023-06-22T12:57:51;24.63;;;11.55;;
62463;SDS011;48512;48.552;9.380;2023-06-22T13:00:18;26.15;;;11.07;;
62463;SDS011;48512;48.552;9.380;2023-06-22T13:02:46;25.83;;;10.93;;
62463;SDS011;48512;48.552;9.380;2023-06-22T13:05:12;22.40;;;10.30;;
62463;SDS011;48512;48.552;9.380;2023-06-22T13:07:38;27.15;;;10.85;;
62463;SDS011;48512;48.552;9.380;2023-06-22T13:12:33;23.63;;;10.63;;
62463;SDS011;48512;48.552;9.380;2023-06-22T13:15:01;25.40;;;10.70;;
62463;SDS011;48512;48.552;9.380;2023-06-22T13:17:31;28.35;;;10.80;;
62463;SDS011;48512;48.552;9.380;2023-06-22T13:19:59;29.25;;;11.32;;
62463;SDS011;48512;48.552;9.380;2023-06-22T13:24:59;27.10;;;10.88;;
62463;SDS011;48512;48.552;9.380;2023-06-22T13:27:30;25.02;;;10.30;;
62463;SDS011;48512;48.552;9.380;2023-06-22T13:29:56;25.75;;;10.57;;
62463;SDS011;48512;48.552;9.380;2023-06-22T13:32:22;24.40;;;11.20;;
62463;SDS011;48512;48.552;9.380;2023-06-22T13:34:49;33.20;;;11.40;;
62463;SDS011;48512;48.552;9.380;2023-06-22T13:37:20;23.23;;;10.35;;
62463;SDS011;48512;48.552;9.380;2023-06-22T13:42:17;27.25;;;10.95;;
62463;SDS011;48512;48.552;9.380;2023-06-22T13:44:45;26.65;;;10.32;;
62463;SDS011;48512;48.552;9.380;2023-06-22T13:47:14;23.45;;;11.00;;
62463;SDS011;48512;48.552;9.380;2023-06-22T13:49:43;23.02;;;10.45;;
62463;SDS011;48512;48.552;9.380;2023-06-22T13:52:09;26.08;;;11.35;;
62463;SDS011;48512;48.552;9.380;2023-06-22T13:54:36;27.67;;;10.02;;
62463;SDS011;48512;48.552;9.380;2023-06-22T13:57:05;26.23;;;10.85;;
62463;SDS011;48512;48.552;9.380;2023-06-22T13:59:32;27.10;;;10.98;;
62463;SDS011;48512;48.552;9.380;2023-06-22T14:01:58;25.70;;;11.00;;
62463;SDS011;48512;48.552;9.380;2023-06-22T14:04:24;30.92;;;11.95;;
62463;SDS011;48512;48.552;9.380;2023-06-22T14:06:53;48.45;;;11.60;;
62463;SDS011;48512;48.552;9.380;2023-06-22T14:09:21;29.45;;;11.00;;
62463;SDS011;48512;48.552;9.380;2023-06-22T14:11:47;31.38;;;11.32;;
62463;SDS011;48512;48.552;9.380;2023-06-22T14:14:14;35.05;;;11.48;;
62463;SDS011;48512;48.552;9.380;2023-06-22T14:16:40;41.63;;;12.77;;
62463;SDS011;48512;48.552;9.380;2023-06-22T14:19:06;30.33;;;11.35;;
62463;SDS011;48512;48.552;9.380;2023-06-22T14:21:35;31.60;;;10.77;;
62463;SDS011;48512;48.552;9.380;2023-06-22T14:24:01;28.42;;;10.73;;
62463;SDS011;48512;48.552;9.380;2023-06-22T14:26:27;29.50;;;10.45;;
62463;SDS011;48512;48.552;9.380;2023-06-22T14:28:55;31.58;;;11.05;;
62463;SDS011;48512;48.552;9.380;2023-06-22T14:31:26;28.55;;;10.63;;
62463;SDS011;48512;48.552;9.380;2023-06-22T14:36:20;32.40;;;10.10;;
62463;SDS011;48512;48.552;9.380;2023-06-22T14:38:47;23.95;;;10.30;;
62463;SDS011;48512;48.552;9.380;2023-06-22T14:41:13;37.95;;;12.00;;
62463;SDS011;48512;48.552;9.380;2023-06-22T14:43:51;26.73;;;10.85;;
62463;SDS011;48512;48.552;9.380;2023-06-22T14:46:18;30.63;;;10.57;;
62463;SDS011;48512;48.552;9.380;2023-06-22T14:48:45;30.33;;;10.40;;
62463;SDS011;48512;48.552;9.380;2023-06-22T14:51:17;30.02;;;10.10;;
62463;SDS011;48512;48.552;9.380;2023-06-22T14:53:44;31.85;;;10.73;;
62463;SDS011;48512;48.552;9.380;2023-06-22T14:56:13;27.48;;;10.93;;
62463;SDS011;48512;48.552;9.380;2023-06-22T14:58:41;34.47;;;10.80;;
62463;SDS011;48512;48.552;9.380;2023-06-22T15:01:13;30.50;;;10.65;;
62463;SDS011;48512;48.552;9.380;2023-06-22T15:03:42;25.88;;;10.02;;
62463;SDS011;48512;48.552;9.380;2023-06-22T15:06:13;25.27;;;10.95;;
62463;SDS011;48512;48.552;9.380;2023-06-22T15:08:43;24.88;;;10.30;;
62463;SDS011;48512;48.552;9.380;2023-06-22T15:11:09;28.88;;;11.38;;
62463;SDS011;48512;48.552;9.380;2023-06-22T15:13:39;31.13;;;11.15;;
62463;SDS011;48512;48.552;9.380;2023-06-22T15:16:06;22.50;;;9.98;;
62463;SDS011;48512;48.552;9.380;2023-06-22T15:18:32;33.20;;;11.20;;
62463;SDS011;48512;48.552;9.380;2023-06-22T15:21:02;25.10;;;11.38;;